createdAt,value
2022-11-16T00:01:36.020Z,97041.88
2022-11-16T00:04:04.428Z,97046.16
2022-11-16T00:06:31.906Z,97041.47
2022-11-16T00:09:20.295Z,97037.75
2022-11-16T00:11:49.851Z,97034.69
2022-11-16T00:14:17.667Z,97035.69
2022-11-16T00:16:44.687Z,97032.59
2022-11-16T00:19:12.341Z,97037.69
2022-11-16T00:21:39.870Z,97026.25
2022-11-16T00:24:07.687Z,97030.91
2022-11-16T00:26:35.065Z,97034.88
2022-11-16T00:29:01.991Z,97045.91
2022-11-16T00:31:28.959Z,97042.88
2022-11-16T00:33:55.920Z,97044.16
2022-11-16T00:36:22.887Z,97043.66
2022-11-16T00:38:55.734Z,97044.22
2022-11-16T00:41:23.141Z,97046.63
2022-11-16T00:43:50.096Z,97054.09
2022-11-16T00:46:17.069Z,97053.44
2022-11-16T00:48:44.069Z,97047.75
2022-11-16T00:51:11.462Z,97067.38
2022-11-16T00:53:38.952Z,97065.28
2022-11-16T00:56:06.668Z,97067.16
2022-11-16T00:58:39.259Z,97069.97
2022-11-16T01:01:10.658Z,97071.50
2022-11-16T01:03:38.119Z,97072.28
2022-11-16T01:06:12.962Z,97063.63
2022-11-16T01:08:41.537Z,97063.81
2022-11-16T01:11:28.948Z,97067.50
2022-11-16T01:13:59.065Z,97067.81
2022-11-16T01:16:26.011Z,97066.78
2022-11-16T01:18:55.177Z,97056.59
2022-11-16T01:21:24.134Z,97050.50
2022-11-16T01:23:52.029Z,97043.41
2022-11-16T01:26:19.263Z,97048.25
2022-11-16T01:28:46.253Z,97039.78
2022-11-16T01:31:14.229Z,97035.50
2022-11-16T01:33:42.274Z,97037.81
2022-11-16T01:36:29.528Z,97034.66
2022-11-16T01:38:59.154Z,97020.66
2022-11-16T01:41:30.288Z,97023.00
2022-11-16T01:44:24.408Z,97021.31
2022-11-16T01:46:54.452Z,97011.31
2022-11-16T01:49:24.056Z,97011.38
2022-11-16T01:51:59.628Z,97019.41
2022-11-16T01:54:31.127Z,97010.41
2022-11-16T01:57:05.035Z,97006.03
2022-11-16T01:59:41.207Z,97001.22
2022-11-16T02:02:15.264Z,96989.53
2022-11-16T02:04:43.656Z,96999.56
2022-11-16T02:08:01.792Z,96990.44
2022-11-16T02:10:53.797Z,96994.09
2022-11-16T02:13:39.699Z,96975.34
2022-11-16T02:16:13.524Z,96982.91
2022-11-16T02:18:55.831Z,96968.66
2022-11-16T02:21:25.349Z,96983.66
2022-11-16T02:24:34.213Z,96971.19
2022-11-16T02:27:11.464Z,96969.41
2022-11-16T02:29:56.135Z,96973.63
2022-11-16T02:32:34.482Z,96972.25
2022-11-16T02:35:40.964Z,96972.28
2022-11-16T02:38:27.211Z,96956.91
2022-11-16T02:41:15.700Z,96956.72
2022-11-16T02:43:53.124Z,96955.22
2022-11-16T02:46:27.214Z,96961.56
2022-11-16T02:48:57.509Z,96964.06
2022-11-16T02:51:28.467Z,96967.97
2022-11-16T02:54:19.508Z,96975.75
2022-11-16T02:57:44.771Z,96965.41
2022-11-16T03:00:44.313Z,96973.19
2022-11-16T03:03:21.569Z,96981.75
2022-11-16T03:06:05.184Z,96981.22
2022-11-16T03:08:41.329Z,96984.09
2022-11-16T03:11:30.723Z,96981.09
2022-11-16T03:14:09.332Z,96993.22
2022-11-16T03:16:40.655Z,96984.50
2022-11-16T03:19:11.278Z,96989.75
2022-11-16T03:21:51.414Z,96985.63
2022-11-16T03:24:20.348Z,96979.59
2022-11-16T03:27:08.013Z,96983.19
2022-11-16T03:30:02.250Z,96981.69
2022-11-16T03:32:53.888Z,96974.91
2022-11-16T03:36:04.051Z,96973.38
2022-11-16T03:38:34.765Z,96982.13
2022-11-16T03:41:06.181Z,96981.16
2022-11-16T03:43:34.840Z,96982.44
2022-11-16T03:46:02.765Z,96981.91
2022-11-16T03:48:36.084Z,96980.53
2022-11-16T03:51:09.928Z,96982.59
2022-11-16T03:53:38.424Z,96971.38
2022-11-16T03:56:05.657Z,96976.19
2022-11-16T03:58:33.054Z,96971.88
2022-11-16T04:01:00.709Z,96968.50
2022-11-16T04:03:28.746Z,96965.84
2022-11-16T04:06:14.739Z,96966.84
2022-11-16T04:08:59.881Z,96960.88
2022-11-16T04:11:45.722Z,96959.75
2022-11-16T04:14:39.803Z,96963.91
2022-11-16T04:17:38.362Z,96960.13
2022-11-16T04:20:25.384Z,96972.63
2022-11-16T04:23:13.242Z,96979.59
2022-11-16T04:25:42.969Z,96981.41
2022-11-16T04:28:18.121Z,96992.78
2022-11-16T04:31:11.956Z,96986.75
2022-11-16T04:34:00.229Z,96994.53
2022-11-16T04:36:46.786Z,96989.44
2022-11-16T04:39:13.711Z,96984.56
2022-11-16T04:42:00.129Z,96996.41
2022-11-16T04:44:49.904Z,96995.34
2022-11-16T04:47:17.794Z,96998.66
2022-11-16T04:49:46.105Z,97008.78
2022-11-16T04:52:13.128Z,97000.09
2022-11-16T04:54:40.412Z,97005.22
2022-11-16T04:57:08.734Z,97001.75
2022-11-16T04:59:36.154Z,96999.94
2022-11-16T05:02:09.654Z,96997.31
2022-11-16T05:04:52.584Z,96996.31
2022-11-16T05:07:21.176Z,96998.91
2022-11-16T05:09:49.896Z,97005.91
2022-11-16T05:12:25.120Z,97004.22
2022-11-16T05:14:56.329Z,97010.63
2022-11-16T05:17:27.484Z,97011.63
2022-11-16T05:20:15.185Z,97020.22
2022-11-16T05:23:26.361Z,97016.38
2022-11-16T05:25:54.122Z,97010.41
2022-11-16T05:28:21.588Z,97003.50
2022-11-16T05:30:48.928Z,96997.16
2022-11-16T05:33:20.271Z,96990.81
2022-11-16T05:35:50.972Z,97004.47
2022-11-16T05:38:19.472Z,97007.53
2022-11-16T05:40:49.815Z,97000.81
2022-11-16T05:43:17.730Z,97006.53
2022-11-16T05:45:54.299Z,97015.81
2022-11-16T05:48:22.047Z,97018.22
2022-11-16T05:50:49.490Z,97022.75
2022-11-16T05:53:22.998Z,97017.97
2022-11-16T05:55:50.081Z,97026.59
2022-11-16T05:58:18.631Z,97024.41
2022-11-16T06:00:48.665Z,97023.81
2022-11-16T06:03:17.539Z,97027.13
2022-11-16T06:05:44.707Z,97017.22
2022-11-16T06:08:14.207Z,97018.56
2022-11-16T06:10:41.465Z,97015.63
2022-11-16T06:13:08.667Z,97013.81
2022-11-16T06:15:38.433Z,97011.41
2022-11-16T06:18:08.365Z,97013.19
2022-11-16T06:20:38.883Z,97007.56
2022-11-16T06:23:07.016Z,97010.19
2022-11-16T06:25:38.664Z,97012.81
2022-11-16T06:28:08.154Z,97019.22
2022-11-16T06:30:36.573Z,97015.91
2022-11-16T06:33:04.841Z,97025.19
2022-11-16T06:35:32.865Z,97028.19
2022-11-16T06:38:00.361Z,97027.16
2022-11-16T06:40:27.383Z,97031.06
2022-11-16T06:42:54.584Z,97036.16
2022-11-16T06:45:21.949Z,97029.88
2022-11-16T06:47:53.774Z,97039.16
2022-11-16T06:50:21.648Z,97042.31
2022-11-16T06:52:50.396Z,97040.81
2022-11-16T06:55:18.467Z,97038.75
2022-11-16T06:57:46.301Z,97052.41
2022-11-16T07:00:14.242Z,97049.34
2022-11-16T07:02:41.292Z,97049.91
2022-11-16T07:05:12.672Z,97051.66
2022-11-16T07:07:40.801Z,97047.31
2022-11-16T07:10:08.927Z,97050.09
2022-11-16T07:12:36.511Z,97058.03
2022-11-16T07:15:05.667Z,97067.44
2022-11-16T07:17:34.749Z,97066.84
2022-11-16T07:20:02.799Z,97062.19
2022-11-16T07:22:29.725Z,97065.03
2022-11-16T07:24:56.748Z,97073.63
2022-11-16T07:27:23.839Z,97076.25
2022-11-16T07:29:52.644Z,97078.59
2022-11-16T07:32:44.573Z,97084.41
2022-11-16T07:35:11.525Z,97094.38
2022-11-16T07:37:39.424Z,97094.06
2022-11-16T07:40:08.696Z,97097.63
2022-11-16T07:42:36.951Z,97100.78
2022-11-16T07:45:22.320Z,97101.63
2022-11-16T07:47:54.893Z,97105.19
2022-11-16T07:50:41.073Z,97106.94
2022-11-16T07:53:07.999Z,97105.84
2022-11-16T07:55:34.945Z,97096.41
2022-11-16T07:58:03.386Z,97100.53
2022-11-16T08:00:30.844Z,97104.56
2022-11-16T08:03:07.161Z,97104.41
2022-11-16T08:05:35.436Z,97112.34
2022-11-16T08:08:02.418Z,97106.75
2022-11-16T08:10:31.192Z,97118.97
2022-11-16T08:12:59.271Z,97108.81
2022-11-16T08:15:26.685Z,97110.91
2022-11-16T08:17:53.709Z,97111.75
2022-11-16T08:20:20.902Z,97108.50
2022-11-16T08:22:49.810Z,97104.88
2022-11-16T08:25:17.085Z,97096.28
2022-11-16T08:27:44.399Z,97094.00
2022-11-16T08:30:12.977Z,97099.78
2022-11-16T08:32:42.059Z,97109.94
2022-11-16T08:35:09.335Z,97114.47
2022-11-16T08:37:36.333Z,97115.06
2022-11-16T08:40:03.942Z,97116.88
2022-11-16T08:42:39.404Z,97118.63
2022-11-16T08:45:09.922Z,97119.28
2022-11-16T08:47:36.856Z,97127.03
2022-11-16T08:50:05.742Z,97122.53
2022-11-16T08:52:32.912Z,97126.66
2022-11-16T08:55:01.075Z,97127.19
2022-11-16T08:57:28.235Z,97117.00
2022-11-16T08:59:59.061Z,97116.59
2022-11-16T09:02:26.028Z,97136.19
2022-11-16T09:04:53.822Z,97134.34
2022-11-16T09:07:21.309Z,97134.59
2022-11-16T09:09:48.788Z,97128.63
2022-11-16T09:12:16.131Z,97127.97
2022-11-16T09:14:43.064Z,97124.13
2022-11-16T09:17:10.125Z,97135.75
2022-11-16T09:19:37.720Z,97124.84
2022-11-16T09:22:05.253Z,97124.16
2022-11-16T09:24:32.221Z,97126.47
2022-11-16T09:27:01.390Z,97125.97
2022-11-16T09:29:28.406Z,97108.41
2022-11-16T09:31:56.027Z,97121.19
2022-11-16T09:34:23.028Z,97116.19
2022-11-16T09:36:49.958Z,97113.78
2022-11-16T09:39:30.621Z,97107.34
2022-11-16T09:42:10.142Z,97112.50
2022-11-16T09:44:58.014Z,97107.06
2022-11-16T09:47:40.573Z,97120.13
2022-11-16T09:50:32.320Z,97133.78
2022-11-16T09:53:23.326Z,97137.56
2022-11-16T09:55:59.316Z,97129.59
2022-11-16T09:58:50.272Z,97140.03
2022-11-16T10:01:29.039Z,97149.59
2022-11-16T10:04:37.032Z,97155.78
2022-11-16T10:07:12.643Z,97157.19
2022-11-16T10:09:39.778Z,97158.28
2022-11-16T10:12:22.436Z,97163.13
2022-11-16T10:14:49.267Z,97159.25
2022-11-16T10:17:42.752Z,97155.41
2022-11-16T10:20:19.169Z,97153.34
2022-11-16T10:23:02.237Z,97147.56
2022-11-16T10:25:53.255Z,97133.94
2022-11-16T10:28:52.125Z,97139.56
2022-11-16T10:31:22.372Z,97131.97
2022-11-16T10:33:53.693Z,97126.94
2022-11-16T10:36:26.961Z,97126.25
2022-11-16T10:38:58.386Z,97128.38
2022-11-16T10:41:41.611Z,97127.72
2022-11-16T10:44:44.219Z,97120.84
2022-11-16T10:47:34.170Z,97119.91
2022-11-16T10:50:17.261Z,97113.47
2022-11-16T10:52:44.226Z,97110.38
2022-11-16T10:55:16.128Z,97107.25
2022-11-16T10:58:05.058Z,97095.16
2022-11-16T11:00:51.846Z,97096.44
2022-11-16T11:03:32.855Z,97093.16
2022-11-16T11:06:00.257Z,97106.84
2022-11-16T11:08:30.664Z,97108.09
2022-11-16T11:11:25.360Z,97109.72
2022-11-16T11:14:11.552Z,97097.88
2022-11-16T11:16:41.362Z,97106.41
2022-11-16T11:19:37.704Z,97103.63
2022-11-16T11:22:04.733Z,97094.84
2022-11-16T11:24:47.774Z,97096.63
2022-11-16T11:27:23.992Z,97106.25
2022-11-16T11:29:55.108Z,97099.38
2022-11-16T11:32:33.105Z,97095.78
2022-11-16T11:35:01.087Z,97084.34
2022-11-16T11:37:34.061Z,97080.38
2022-11-16T11:40:09.929Z,97091.25
2022-11-16T11:42:41.323Z,97097.25
2022-11-16T11:45:15.294Z,97101.50
2022-11-16T11:48:13.873Z,97104.16
2022-11-16T11:51:02.478Z,97105.63
2022-11-16T11:53:46.587Z,97109.53
2022-11-16T11:56:15.071Z,97103.09
2022-11-16T11:58:44.098Z,97107.50
2022-11-16T12:01:41.609Z,97099.91
2022-11-16T12:04:08.465Z,97092.03
2022-11-16T12:06:51.613Z,97081.81
2022-11-16T12:09:32.357Z,97069.94
2022-11-16T12:12:19.781Z,97073.53
2022-11-16T12:15:47.048Z,97073.44
2022-11-16T12:18:19.936Z,97069.97
2022-11-16T12:21:05.364Z,97075.75
2022-11-16T12:24:06.657Z,97073.34
2022-11-16T12:26:33.467Z,97066.56
2022-11-16T12:29:12.276Z,97062.94
2022-11-16T12:32:08.980Z,97067.25
2022-11-16T12:34:56.658Z,97074.00
2022-11-16T12:37:45.439Z,97071.56
2022-11-16T12:40:30.277Z,97069.16
2022-11-16T12:43:34.677Z,97065.69
2022-11-16T12:46:38.864Z,97063.03
2022-11-16T12:49:39.849Z,97065.22
2022-11-16T12:52:28.440Z,97066.41
2022-11-16T12:58:13.218Z,97061.28
2022-11-16T13:01:41.501Z,97065.03
2022-11-16T13:04:19.690Z,97059.13
2022-11-16T13:07:10.936Z,97050.38
2022-11-16T13:09:43.846Z,97047.41
2022-11-16T13:12:17.398Z,97053.06
2022-11-16T13:14:50.150Z,97044.25
2022-11-16T13:17:31.072Z,97042.78
2022-11-16T13:20:25.936Z,97047.94
2022-11-16T13:23:31.978Z,97042.31
2022-11-16T13:26:10.527Z,97037.03
2022-11-16T13:28:52.049Z,97036.53
2022-11-16T13:31:41.798Z,97031.38
2022-11-16T13:34:30.571Z,97035.00
2022-11-16T13:36:57.818Z,97020.75
2022-11-16T13:39:58.982Z,97017.28
2022-11-16T13:42:26.797Z,97016.13
2022-11-16T13:45:09.170Z,97018.91
2022-11-16T13:47:37.565Z,97015.44
2022-11-16T13:50:07.314Z,97015.25
2022-11-16T13:53:28.386Z,97024.03
2022-11-16T13:55:43.416Z,97021.19
2022-11-16T13:58:20.116Z,97014.41
2022-11-16T14:00:56.439Z,97011.34
2022-11-16T14:03:23.310Z,97009.53
2022-11-16T14:05:53.219Z,97013.38
2022-11-16T14:08:20.168Z,97009.47
2022-11-16T14:10:52.416Z,97012.50
2022-11-16T14:13:43.809Z,97006.53
2022-11-16T14:16:19.898Z,97000.91
2022-11-16T14:18:59.355Z,96997.44
2022-11-16T14:21:37.308Z,96999.75
2022-11-16T14:24:09.836Z,97008.03
2022-11-16T14:27:05.157Z,97007.22
2022-11-16T14:30:00.404Z,96998.59
2022-11-16T14:32:38.309Z,96996.75
2022-11-16T14:35:39.502Z,96983.00
2022-11-16T14:38:33.278Z,96983.19
2022-11-16T14:41:03.404Z,96975.75
2022-11-16T14:43:38.570Z,96973.09
2022-11-16T14:46:13.845Z,96965.44
2022-11-16T14:48:45.969Z,96959.50
2022-11-16T14:51:19.228Z,96953.22
2022-11-16T14:53:53.830Z,96952.38
2022-11-16T14:56:21.080Z,96942.59
2022-11-16T14:59:00.710Z,96947.09
2022-11-16T15:01:36.664Z,96946.28
2022-11-16T15:04:07.431Z,96944.94
2022-11-16T15:06:50.220Z,96942.44
2022-11-16T15:09:30.242Z,96939.13
2022-11-16T15:12:17.289Z,96944.53
2022-11-16T15:14:53.702Z,96942.72
2022-11-16T15:17:31.947Z,96942.09
2022-11-16T15:20:22.796Z,96938.09
2022-11-16T15:22:55.453Z,96945.50
2022-11-16T15:25:34.719Z,96948.22
2022-11-16T15:28:26.689Z,96938.56
2022-11-16T15:31:05.177Z,96933.94
2022-11-16T15:33:38.320Z,96927.94
2022-11-16T15:36:39.569Z,96931.22
2022-11-16T15:39:17.113Z,96923.47
2022-11-16T15:41:44.760Z,96927.72
2022-11-16T15:44:17.135Z,96936.22
2022-11-16T15:46:49.055Z,96935.19
2022-11-16T15:49:26.644Z,96929.44
2022-11-16T15:51:53.641Z,96928.25
2022-11-16T15:54:52.724Z,96924.63
2022-11-16T15:57:24.683Z,96924.97
2022-11-16T15:59:57.124Z,96912.97
2022-11-16T16:02:30.130Z,96907.25
2022-11-16T16:04:57.533Z,96921.13
2022-11-16T16:07:43.079Z,96925.97
2022-11-16T16:10:19.373Z,96925.16
2022-11-16T16:12:54.584Z,96917.72
2022-11-16T16:15:27.176Z,96921.00
2022-11-16T16:17:54.608Z,96926.72
2022-11-16T16:20:25.386Z,96923.88
2022-11-16T16:22:54.322Z,96917.00
2022-11-16T16:25:34.042Z,96911.50
2022-11-16T16:28:01.142Z,96915.97
2022-11-16T16:30:29.434Z,96909.41
2022-11-16T16:32:56.509Z,96909.09
2022-11-16T16:35:25.504Z,96914.22
2022-11-16T16:37:59.214Z,96916.44
2022-11-16T16:40:26.686Z,96907.03
2022-11-16T16:42:56.433Z,96911.28
2022-11-16T16:45:38.724Z,96914.50
2022-11-16T16:48:06.341Z,96922.66
2022-11-16T16:50:33.428Z,96917.56
2022-11-16T16:53:00.601Z,96912.16
2022-11-16T16:55:28.388Z,96895.94
2022-11-16T16:57:58.193Z,96900.75
2022-11-16T17:00:25.914Z,96891.88
2022-11-16T17:02:52.972Z,96894.59
2022-11-16T17:05:20.116Z,96898.75
2022-11-16T17:07:47.125Z,96897.28
2022-11-16T17:10:14.094Z,96897.38
2022-11-16T17:12:41.261Z,96902.16
2022-11-16T17:15:08.773Z,96893.28
2022-11-16T17:17:37.201Z,96887.97
2022-11-16T17:20:06.120Z,96882.31
2022-11-16T17:22:34.276Z,96886.72
2022-11-16T17:25:01.236Z,96888.72
2022-11-16T17:27:28.220Z,96886.63
2022-11-16T17:29:55.146Z,96891.19
2022-11-16T17:32:22.040Z,96881.59
2022-11-16T17:34:48.957Z,96888.16
2022-11-16T17:37:15.909Z,96875.09
2022-11-16T17:39:42.981Z,96875.88
2022-11-16T17:42:10.010Z,96876.47
2022-11-16T17:44:36.980Z,96877.75
2022-11-16T17:47:04.047Z,96871.63
2022-11-16T17:49:31.046Z,96866.59
2022-11-16T17:51:57.981Z,96871.03
2022-11-16T17:54:24.966Z,96868.31
2022-11-16T17:56:52.009Z,96873.44
2022-11-16T17:59:18.995Z,96866.97
2022-11-16T18:01:46.070Z,96875.25
2022-11-16T18:04:13.060Z,96866.75
2022-11-16T18:06:40.123Z,96871.47
2022-11-16T18:09:07.097Z,96871.94
2022-11-16T18:11:34.077Z,96865.44
2022-11-16T18:14:01.521Z,96863.91
2022-11-16T18:16:31.690Z,96857.69
2022-11-16T18:19:03.282Z,96865.16
2022-11-16T18:21:30.852Z,96860.84
2022-11-16T18:24:00.798Z,96861.16
2022-11-16T18:26:27.776Z,96864.72
2022-11-16T18:28:54.832Z,96864.25
2022-11-16T18:31:24.073Z,96856.44
2022-11-16T18:33:51.929Z,96861.13
2022-11-16T18:36:21.288Z,96842.38
2022-11-16T18:38:48.869Z,96848.03
2022-11-16T18:41:20.196Z,96836.78
2022-11-16T18:43:54.183Z,96831.19
2022-11-16T18:46:30.524Z,96831.44
2022-11-16T18:48:58.360Z,96829.63
2022-11-16T18:51:27.418Z,96816.38
2022-11-16T18:53:54.759Z,96806.00
2022-11-16T18:56:22.396Z,96796.34
2022-11-16T18:58:51.394Z,96797.31
2022-11-16T19:01:25.288Z,96787.34
2022-11-16T19:03:54.291Z,96783.03
2022-11-16T19:06:23.092Z,96781.63
2022-11-16T19:08:59.720Z,96778.59
2022-11-16T19:11:28.549Z,96780.25
2022-11-16T19:14:00.754Z,96778.22
2022-11-16T19:16:28.176Z,96772.34
2022-11-16T19:18:55.536Z,96775.66
2022-11-16T19:21:23.496Z,96777.97
2022-11-16T19:23:54.094Z,96773.69
2022-11-16T19:26:27.155Z,96772.84
2022-11-16T19:28:54.677Z,96772.03
2022-11-16T19:31:27.774Z,96781.75
2022-11-16T19:34:07.153Z,96787.69
2022-11-16T19:36:35.913Z,96785.91
2022-11-16T19:39:04.519Z,96785.09
2022-11-16T19:41:31.639Z,96784.06
2022-11-16T19:44:01.520Z,96779.50
2022-11-16T19:46:32.185Z,96776.22
2022-11-16T19:49:00.141Z,96784.00
2022-11-16T19:51:33.389Z,96784.38
2022-11-16T19:54:01.696Z,96777.34
2022-11-16T19:56:29.008Z,96781.91
2022-11-16T19:58:56.007Z,96785.53
2022-11-16T20:01:27.697Z,96789.81
2022-11-16T20:03:57.959Z,96797.00
2022-11-16T20:06:29.192Z,96799.78
2022-11-16T20:09:00.730Z,96791.91
2022-11-16T20:11:34.014Z,96800.84
2022-11-16T20:14:02.560Z,96803.34
2022-11-16T20:16:38.446Z,96799.47
2022-11-16T20:19:10.379Z,96808.44
2022-11-16T20:21:42.947Z,96823.22
2022-11-16T20:24:13.608Z,96819.28
2022-11-16T20:26:47.880Z,96810.28
2022-11-16T20:29:17.793Z,96799.63
2022-11-16T20:31:46.054Z,96778.75
2022-11-16T20:34:15.873Z,96757.13
2022-11-16T20:36:46.205Z,96761.25
2022-11-16T20:39:19.483Z,96756.66
2022-11-16T20:41:47.973Z,96755.47
2022-11-16T20:44:19.497Z,96742.19
2022-11-16T20:46:46.679Z,96745.31
2022-11-16T20:49:13.843Z,96749.84
2022-11-16T20:51:40.808Z,96744.19
2022-11-16T20:54:07.886Z,96728.56
2022-11-16T20:56:34.837Z,96735.75
2022-11-16T20:59:01.860Z,96735.47
2022-11-16T21:01:31.332Z,96743.09
2022-11-16T21:04:01.903Z,96740.47
2022-11-16T21:06:29.605Z,96740.19
2022-11-16T21:08:56.969Z,96745.72
2022-11-16T21:11:28.256Z,96743.34
2022-11-16T21:14:14.036Z,96738.97
2022-11-16T21:16:41.400Z,96742.41
2022-11-16T21:19:08.588Z,96728.44
2022-11-16T21:21:35.617Z,96736.84
2022-11-16T21:24:02.637Z,96741.50
2022-11-16T21:26:32.042Z,96729.53
2022-11-16T21:29:00.771Z,96718.47
2022-11-16T21:31:33.903Z,96726.59
2022-11-16T21:34:01.040Z,96721.50
2022-11-16T21:36:30.839Z,96714.50
2022-11-16T21:38:58.078Z,96712.44
2022-11-16T21:41:26.115Z,96716.59
2022-11-16T21:43:53.430Z,96720.34
2022-11-16T21:46:26.122Z,96721.38
2022-11-16T21:48:56.242Z,96722.06
2022-11-16T21:51:26.726Z,96717.94
2022-11-16T21:53:54.228Z,96711.38
2022-11-16T21:56:24.450Z,96716.13
2022-11-16T21:58:53.021Z,96710.41
2022-11-16T22:01:21.411Z,96708.13
2022-11-16T22:04:08.866Z,96697.91
2022-11-16T22:06:54.401Z,96711.88
2022-11-16T22:09:21.734Z,96705.72
2022-11-16T22:11:48.748Z,96702.16
2022-11-16T22:14:15.682Z,96696.78
2022-11-16T22:16:43.104Z,96707.25
2022-11-16T22:19:09.978Z,96697.78
2022-11-16T22:21:36.889Z,96706.56
2022-11-16T22:24:03.944Z,96710.53
2022-11-16T22:26:30.888Z,96694.66
2022-11-16T22:28:59.111Z,96704.88
2022-11-16T22:31:26.140Z,96709.31
2022-11-16T22:33:53.751Z,96702.25
2022-11-16T22:36:20.715Z,96699.50
2022-11-16T22:38:47.704Z,96700.31
2022-11-16T22:41:14.637Z,96703.91
2022-11-16T22:43:41.581Z,96700.78
2022-11-16T22:46:10.851Z,96702.59
2022-11-16T22:48:40.199Z,96696.78
2022-11-16T22:51:28.216Z,96699.28
2022-11-16T22:54:00.962Z,96696.06
2022-11-16T22:56:30.039Z,96687.34
2022-11-16T22:58:57.369Z,96681.38
2022-11-16T23:01:24.479Z,96684.97
2022-11-16T23:03:51.657Z,96683.84
2022-11-16T23:06:18.864Z,96684.22
2022-11-16T23:08:46.032Z,96680.69
2022-11-16T23:11:38.422Z,96678.34
2022-11-16T23:14:26.095Z,96665.19
2022-11-16T23:16:52.987Z,96671.81
2022-11-16T23:19:40.451Z,96664.34
2022-11-16T23:22:31.956Z,96669.25
2022-11-16T23:25:17.702Z,96657.16
2022-11-16T23:28:10.263Z,96652.16
2022-11-16T23:30:37.578Z,96646.09
2022-11-16T23:33:04.496Z,96649.28
2022-11-16T23:35:31.559Z,96645.81
2022-11-16T23:37:59.960Z,96643.34
2022-11-16T23:40:42.040Z,96635.72
2022-11-16T23:43:28.874Z,96627.84
2022-11-16T23:45:55.818Z,96624.66
2022-11-16T23:48:22.759Z,96625.03
2022-11-16T23:50:49.679Z,96625.97
2022-11-16T23:53:16.591Z,96621.19
2022-11-16T23:55:43.547Z,96612.56
2022-11-16T23:58:14.383Z,96608.28
